Time;durP1;ratioP1;P1;durP2;ratioP2;P2;SDS_P1;SDS_P2;PMS_P1;PMS_P2;Temp;Humidity;BMP_temperature;BMP_pressure;BME280_temperature;BME280_humidity;BME280_pressure;Samples;Min_cycle;Max_cycle;Signal;HPM_P1;HPM_P2
2023/04/16 04:22:32;;;;;;;48.78;15.68;;;;;;;8.23;100.00;100380.41;5109713;27;20408;-68
2023/04/16 04:24:58;;;;;;;46.53;14.73;;;;;;;8.27;100.00;100381.75;5108439;28;20043;-69
2023/04/16 04:27:26;;;;;;;45.85;15.65;;;;;;;8.27;100.00;100383.59;5107964;28;20040;-69
2023/04/16 04:29:52;;;;;;;36.50;14.27;;;;;;;8.26;100.00;100384.56;5108276;28;20047;-69
2023/04/16 04:32:17;;;;;;;44.30;17.55;;;;;;;8.34;100.00;100387.28;5108270;28;20046;-69
2023/04/16 04:34:44;;;;;;;39.58;14.57;;;;;;;8.31;100.00;100396.41;5108310;28;20036;-68
2023/04/16 04:37:10;;;;;;;40.25;15.07;;;;;;;8.30;100.00;100392.09;5107702;28;20085;-68
2023/04/16 04:39:37;;;;;;;36.20;12.35;;;;;;;8.28;100.00;100386.09;5108242;28;20411;-68
2023/04/16 04:42:02;;;;;;;37.33;13.55;;;;;;;8.27;100.00;100396.84;5107997;28;20046;-69
2023/04/16 04:44:27;;;;;;;35.22;13.85;;;;;;;8.30;100.00;100399.22;5109402;28;20032;-69
2023/04/16 04:46:53;;;;;;;35.53;12.80;;;;;;;8.33;100.00;100399.72;5107818;28;20065;-68
2023/04/16 04:49:18;;;;;;;32.35;14.00;;;;;;;8.30;100.00;100417.78;5107738;28;20408;-69
2023/04/16 04:51:44;;;;;;;40.67;13.75;;;;;;;8.38;100.00;100415.22;5109160;28;20040;-68
2023/04/16 04:54:09;;;;;;;33.20;12.43;;;;;;;8.31;100.00;100420.28;5109151;28;20028;-70
2023/04/16 04:56:35;;;;;;;41.28;13.52;;;;;;;8.37;100.00;100425.00;5107833;28;20496;-69
2023/04/16 04:59:00;;;;;;;34.03;14.73;;;;;;;8.34;100.00;100424.44;5108775;28;20036;-69
2023/04/16 05:01:26;;;;;;;38.00;13.82;;;;;;;8.38;100.00;100429.31;5107807;28;20130;-69
2023/04/16 05:03:51;;;;;;;26.65;10.90;;;;;;;8.40;100.00;100434.47;5108949;28;20039;-69
2023/04/16 05:06:17;;;;;;;28.00;10.80;;;;;;;8.38;100.00;100426.66;5108990;28;20055;-69
2023/04/16 05:08:42;;;;;;;29.75;12.90;;;;;;;8.38;100.00;100434.63;5108610;28;20115;-68
2023/04/16 05:11:07;;;;;;;36.75;12.82;;;;;;;8.43;100.00;100435.00;5108980;28;20539;-68
2023/04/16 05:13:33;;;;;;;33.20;11.95;;;;;;;8.43;100.00;100426.22;5108835;28;20043;-69
2023/04/16 05:15:58;;;;;;;24.90;11.60;;;;;;;8.40;100.00;100439.78;5108782;28;20131;-69
2023/04/16 05:18:24;;;;;;;29.13;11.18;;;;;;;8.46;100.00;100448.94;5108390;28;20228;-69
2023/04/16 05:20:49;;;;;;;34.53;12.48;;;;;;;8.47;100.00;100451.44;5108549;28;20119;-69
2023/04/16 05:23:15;;;;;;;30.85;11.00;;;;;;;8.46;100.00;100449.78;5108797;28;20392;-68
2023/04/16 05:25:40;;;;;;;24.40;9.38;;;;;;;8.44;100.00;100443.81;5103932;28;20029;-68
2023/04/16 05:28:05;;;;;;;24.05;9.38;;;;;;;8.46;100.00;100447.13;5086726;28;20048;-69
2023/04/16 05:30:31;;;;;;;26.60;9.48;;;;;;;8.45;100.00;100455.25;5088233;28;20540;-69
2023/04/16 05:32:56;;;;;;;25.73;9.93;;;;;;;8.41;100.00;100452.91;5080103;28;20068;-68
2023/04/16 05:35:22;;;;;;;22.38;9.23;;;;;;;8.45;100.00;100458.75;5074678;28;20040;-69
2023/04/16 05:37:47;;;;;;;28.20;10.18;;;;;;;8.45;100.00;100458.75;5074350;28;20432;-69
2023/04/16 05:40:13;;;;;;;22.98;9.40;;;;;;;8.47;100.00;100459.41;5074438;28;20036;-69
2023/04/16 05:42:38;;;;;;;26.48;9.05;;;;;;;8.45;100.00;100465.88;5074535;28;20036;-68
2023/04/16 05:45:04;;;;;;;22.90;8.88;;;;;;;8.44;100.00;100462.38;5074430;28;20117;-69
2023/04/16 05:47:30;;;;;;;24.30;9.15;;;;;;;8.48;100.00;100468.25;5074159;28;20090;-69
2023/04/16 05:49:55;;;;;;;22.45;8.93;;;;;;;8.48;100.00;100478.84;5074362;28;20048;-67
2023/04/16 05:52:20;;;;;;;23.55;8.90;;;;;;;8.45;100.00;100471.19;5074414;28;20101;-68
2023/04/16 05:54:46;;;;;;;23.38;8.82;;;;;;;8.42;100.00;100475.81;5076573;28;20086;-63
2023/04/16 05:57:12;;;;;;;19.15;7.53;;;;;;;8.46;100.00;100480.81;5073944;28;20044;-63
2023/04/16 05:59:38;;;;;;;23.55;8.32;;;;;;;8.49;100.00;100485.81;5075432;28;20078;-63
2023/04/16 06:02:03;;;;;;;23.88;7.50;;;;;;;8.43;100.00;100476.66;5076264;28;20120;-62
2023/04/16 06:04:29;;;;;;;22.20;8.80;;;;;;;8.43;100.00;100481.97;5074627;28;20036;-62
2023/04/16 06:06:55;;;;;;;22.42;9.75;;;;;;;8.41;100.00;100478.59;5075783;28;20404;-64
2023/04/16 06:09:20;;;;;;;25.23;9.25;;;;;;;8.45;100.00;100479.16;5075368;28;20119;-64
2023/04/16 06:11:46;;;;;;;21.27;8.35;;;;;;;8.42;100.00;100481.13;5072976;28;20037;-66
2023/04/16 06:14:11;;;;;;;19.25;8.55;;;;;;;8.48;100.00;100478.84;5074100;28;20072;-67
2023/04/16 06:16:37;;;;;;;22.13;7.88;;;;;;;8.48;100.00;100486.81;5074010;28;20033;-66
2023/04/16 06:19:02;;;;;;;22.30;8.52;;;;;;;8.53;100.00;100482.69;5073675;28;20549;-66
2023/04/16 06:21:28;;;;;;;21.70;8.32;;;;;;;8.55;100.00;100486.03;5073713;28;20449;-65
2023/04/16 06:23:54;;;;;;;16.75;7.00;;;;;;;8.52;100.00;100496.13;5073853;28;20036;-66
2023/04/16 06:26:20;;;;;;;20.17;8.25;;;;;;;8.51;100.00;100489.16;5073757;28;20047;-66
2023/04/16 06:28:45;;;;;;;24.35;7.93;;;;;;;8.49;100.00;100501.75;5073301;28;20122;-65
2023/04/16 06:31:11;;;;;;;17.55;8.13;;;;;;;8.53;100.00;100495.13;5073965;28;20040;-66
2023/04/16 06:33:36;;;;;;;18.58;7.35;;;;;;;8.53;100.00;100501.28;5073634;28;20046;-66
2023/04/16 06:36:02;;;;;;;22.75;8.30;;;;;;;8.59;100.00;100497.19;5073517;28;20047;-66
2023/04/16 06:38:27;;;;;;;15.38;6.90;;;;;;;8.61;100.00;100500.53;5073107;28;20036;-66
2023/04/16 06:40:53;;;;;;;22.52;8.13;;;;;;;8.66;100.00;100503.53;5073481;28;20036;-66
2023/04/16 06:43:18;;;;;;;15.80;7.13;;;;;;;8.69;100.00;100506.72;5073164;28;20036;-66
2023/04/16 06:45:44;;;;;;;18.27;7.15;;;;;;;8.68;100.00;100501.59;5071126;28;20047;-65
2023/04/16 06:48:09;;;;;;;14.23;6.40;;;;;;;8.74;100.00;100513.38;5072996;28;20398;-66
2023/04/16 06:50:35;;;;;;;13.73;6.75;;;;;;;8.73;100.00;100509.06;5073121;28;20124;-65
2023/04/16 06:53:00;;;;;;;15.02;6.57;;;;;;;8.73;100.00;100511.72;5073256;28;20478;-66
2023/04/16 06:55:25;;;;;;;17.23;6.22;;;;;;;8.74;100.00;100503.63;5073114;28;20048;-66
2023/04/16 06:57:51;;;;;;;16.00;6.05;;;;;;;8.76;100.00;100509.59;5072799;28;20143;-66
2023/04/16 07:00:17;;;;;;;16.50;7.00;;;;;;;8.74;100.00;100510.72;5073018;28;20040;-65
2023/04/16 07:02:42;;;;;;;17.58;6.97;;;;;;;8.78;100.00;100520.91;5073235;28;20463;-66
2023/04/16 07:05:07;;;;;;;14.90;6.93;;;;;;;8.76;100.00;100516.75;5082053;28;20036;-66
2023/04/16 07:07:33;;;;;;;23.17;8.88;;;;;;;8.74;100.00;100514.25;5091726;28;20040;-66
2023/04/16 07:09:58;;;;;;;17.58;8.35;;;;;;;8.74;100.00;100519.56;5093161;28;20039;-67
2023/04/16 07:12:24;;;;;;;17.00;7.65;;;;;;;8.74;100.00;100516.91;5092962;28;20043;-66
2023/04/16 07:14:50;;;;;;;16.77;7.10;;;;;;;8.85;100.00;100529.06;5093084;28;20118;-64
2023/04/16 07:17:15;;;;;;;19.58;8.95;;;;;;;8.84;100.00;100520.28;5092721;28;20193;-65
2023/04/16 07:19:40;;;;;;;16.63;7.63;;;;;;;8.85;100.00;100519.28;5092849;28;20043;-64
2023/04/16 07:22:06;;;;;;;19.73;8.43;;;;;;;8.81;100.00;100522.44;5092867;28;20028;-64
2023/04/16 07:24:31;;;;;;;19.60;8.70;;;;;;;8.86;100.00;100526.25;5092822;28;20065;-64
2023/04/16 07:26:57;;;;;;;19.00;7.65;;;;;;;8.91;100.00;100531.13;5092388;28;20048;-65
2023/04/16 07:29:22;;;;;;;19.80;8.05;;;;;;;8.86;100.00;100531.56;5092848;28;20036;-64
2023/04/16 07:31:47;;;;;;;17.60;7.78;;;;;;;8.88;100.00;100528.78;5092674;28;20039;-64
2023/04/16 07:34:13;;;;;;;20.35;8.95;;;;;;;8.88;100.00;100540.25;5092686;28;20119;-64
2023/04/16 07:36:38;;;;;;;22.75;8.70;;;;;;;8.92;100.00;100530.13;5092556;28;20122;-64
2023/04/16 07:39:05;;;;;;;20.77;8.18;;;;;;;8.93;100.00;100531.78;5092374;28;20044;-65
2023/04/16 07:41:30;;;;;;;19.73;8.18;;;;;;;8.91;100.00;100529.28;5091324;28;20544;-65
2023/04/16 07:43:56;;;;;;;19.25;8.20;;;;;;;8.91;100.00;100539.91;5092492;28;20128;-65
2023/04/16 07:46:22;;;;;;;21.55;7.57;;;;;;;8.93;100.00;100532.66;5092317;28;20110;-66
2023/04/16 07:48:47;;;;;;;16.77;7.05;;;;;;;8.90;100.00;100538.25;5092180;28;20504;-65
2023/04/16 07:51:13;;;;;;;20.05;9.00;;;;;;;8.94;100.00;100536.97;5092344;28;20032;-65
2023/04/16 07:53:38;;;;;;;22.05;9.18;;;;;;;8.97;100.00;100541.13;5092401;28;20102;-65
2023/04/16 07:56:03;;;;;;;19.20;7.72;;;;;;;8.93;100.00;100537.09;5091882;28;20429;-64
2023/04/16 07:58:29;;;;;;;17.77;7.93;;;;;;;8.94;100.00;100550.25;5092052;28;20040;-64
2023/04/16 08:00:54;;;;;;;19.10;8.75;;;;;;;8.98;100.00;100546.28;5092438;28;20039;-64
2023/04/16 08:03:20;;;;;;;18.60;7.90;;;;;;;8.95;100.00;100551.91;5092280;28;20130;-65
2023/04/16 08:05:45;;;;;;;18.38;7.22;;;;;;;8.93;100.00;100553.91;5092298;28;20035;-65
2023/04/16 08:08:11;;;;;;;21.67;7.85;;;;;;;8.98;100.00;100556.91;5090631;28;20044;-66
2023/04/16 08:10:36;;;;;;;21.52;8.10;;;;;;;8.98;100.00;100556.91;5090854;28;20047;-64
2023/04/16 08:13:01;;;;;;;17.67;7.85;;;;;;;9.02;100.00;100559.25;5092170;28;20495;-66
2023/04/16 08:15:27;;;;;;;18.05;6.97;;;;;;;9.01;100.00;100553.13;5092250;28;20085;-65
2023/04/16 08:17:52;;;;;;;18.27;8.13;;;;;;;9.07;100.00;100560.47;5091685;28;20044;-65
2023/04/16 08:20:18;;;;;;;20.55;8.70;;;;;;;9.12;100.00;100568.78;5091965;28;20036;-65
2023/04/16 08:22:44;;;;;;;17.52;7.80;;;;;;;9.18;100.00;100570.00;5092209;28;20048;-65
2023/04/16 08:25:10;;;;;;;16.77;7.18;;;;;;;9.22;100.00;100576.66;5091919;28;20043;-65
2023/04/16 08:27:35;;;;;;;20.55;7.07;;;;;;;9.24;100.00;100567.53;5091633;28;20044;-65
2023/04/16 08:30:01;;;;;;;13.85;6.28;;;;;;;9.27;100.00;100581.53;5092031;28;20036;-65
2023/04/16 08:32:26;;;;;;;20.65;8.23;;;;;;;9.41;100.00;100570.31;5090571;28;20089;-65
2023/04/16 08:34:52;;;;;;;13.57;6.53;;;;;;;9.35;100.00;100577.09;5092012;28;20459;-65
2023/04/16 08:37:17;;;;;;;16.67;6.70;;;;;;;9.38;100.00;100584.72;5090299;28;20046;-65
2023/04/16 08:39:43;;;;;;;11.85;5.63;;;;;;;9.39;100.00;100596.19;5090626;28;20043;-65
2023/04/16 08:42:29;;;;;;;10.27;5.82;;;;;;;9.39;100.00;100585.56;5091835;28;20165;-65
2023/04/16 08:45:05;;;;;;;13.32;5.82;;;;;;;9.47;100.00;100588.28;5091975;28;20089;-65
2023/04/16 08:47:34;;;;;;;28.20;7.70;;;;;;;9.54;100.00;100588.50;5091360;28;20061;-65
2023/04/16 08:50:01;;;;;;;10.70;5.18;;;;;;;9.44;100.00;100581.44;5091793;28;20496;-64
2023/04/16 08:52:30;;;;;;;11.02;6.00;;;;;;;9.60;100.00;100595.84;5091694;28;20043;-64
2023/04/16 08:55:10;;;;;;;17.27;7.10;;;;;;;9.70;100.00;100591.22;5091791;28;20032;-64
2023/04/16 08:57:45;;;;;;;13.68;6.53;;;;;;;9.71;100.00;100590.22;5091588;28;20070;-64
2023/04/16 09:00:12;;;;;;;16.35;6.43;;;;;;;9.70;100.00;100588.56;5091777;28;20043;-64
2023/04/16 09:02:38;;;;;;;13.27;5.95;;;;;;;9.68;100.00;100588.72;5091555;28;20036;-64
2023/04/16 09:05:06;;;;;;;13.00;5.68;;;;;;;9.72;100.00;100598.06;5091701;28;20046;-64
2023/04/16 09:07:33;;;;;;;13.82;6.30;;;;;;;9.71;100.00;100598.19;5092202;28;20504;-64
2023/04/16 09:10:00;;;;;;;12.57;5.55;;;;;;;9.72;100.00;100590.09;5095498;28;20099;-65
2023/04/16 09:12:26;;;;;;;12.33;5.17;;;;;;;9.62;100.00;100594.69;5095350;28;20028;-65
2023/04/16 09:14:52;;;;;;;13.18;5.40;;;;;;;9.71;100.00;100600.88;5095458;28;20115;-65
2023/04/16 09:17:18;;;;;;;8.88;5.05;;;;;;;9.58;100.00;100595.97;5094790;28;20132;-65
2023/04/16 09:19:45;;;;;;;13.55;5.95;;;;;;;9.64;100.00;100598.00;5095265;28;20044;-64
2023/04/16 09:22:11;;;;;;;13.20;5.25;;;;;;;9.68;100.00;100595.88;5095055;28;20139;-64
2023/04/16 09:24:40;;;;;;;9.88;4.70;;;;;;;9.71;100.00;100598.19;5095151;28;20051;-64
2023/04/16 09:27:07;;;;;;;14.30;5.75;;;;;;;9.73;100.00;100609.53;5094737;28;20082;-64
2023/04/16 09:29:40;;;;;;;12.70;5.63;;;;;;;9.69;100.00;100608.19;5095135;28;20083;-64
2023/04/16 09:32:08;;;;;;;12.50;5.68;;;;;;;9.72;100.00;100608.72;5094726;28;20039;-65
2023/04/16 09:34:38;;;;;;;13.02;5.60;;;;;;;9.69;100.00;100606.34;5095026;28;20550;-65
2023/04/16 09:37:15;;;;;;;13.63;5.50;;;;;;;9.73;100.00;100613.03;5094634;28;20108;-65
2023/04/16 09:39:41;;;;;;;16.25;6.57;;;;;;;9.75;100.00;100604.88;5094922;28;20115;-65
2023/04/16 09:42:07;;;;;;;10.60;4.93;;;;;;;9.76;100.00;100609.22;5094813;28;20059;-65
2023/04/16 09:44:37;;;;;;;8.57;4.85;;;;;;;9.82;100.00;100613.06;5094823;28;20066;-65
2023/04/16 09:47:07;;;;;;;15.00;6.50;;;;;;;9.81;100.00;100616.72;5094353;28;20040;-65
2023/04/16 09:49:41;;;;;;;12.43;5.60;;;;;;;9.74;100.00;100604.06;5094711;28;20471;-65
2023/04/16 09:52:17;;;;;;;12.07;5.70;;;;;;;9.75;100.00;100616.34;5094470;28;20119;-64
2023/04/16 09:54:51;;;;;;;11.80;5.13;;;;;;;9.74;100.00;100621.84;5094666;28;20032;-65
2023/04/16 09:57:22;;;;;;;12.13;5.70;;;;;;;9.76;100.00;100623.34;5094107;28;20038;-65
2023/04/16 09:59:51;;;;;;;9.95;4.63;;;;;;;9.76;100.00;100617.19;5094542;28;20047;-64
2023/04/16 10:02:17;;;;;;;10.20;4.43;;;;;;;9.77;100.00;100621.50;5094368;28;20089;-64
2023/04/16 10:04:49;;;;;;;11.65;5.65;;;;;;;9.82;100.00;100627.19;5094473;28;20057;-65
2023/04/16 10:07:15;;;;;;;11.88;5.45;;;;;;;9.71;100.00;100606.19;5093864;28;20118;-65
2023/04/16 10:09:41;;;;;;;11.75;5.10;;;;;;;9.81;100.00;100630.84;5094311;28;20107;-65
2023/04/16 10:12:07;;;;;;;14.15;5.50;;;;;;;9.86;100.00;100622.41;5094115;28;20480;-64
2023/04/16 10:14:32;;;;;;;11.57;6.13;;;;;;;9.87;100.00;100624.06;5094218;28;20040;-64
2023/04/16 10:16:59;;;;;;;8.73;4.93;;;;;;;9.92;100.00;100641.22;5093855;28;20442;-65
2023/04/16 10:19:26;;;;;;;12.30;6.13;;;;;;;9.91;100.00;100630.72;5093989;28;20504;-65
2023/04/16 10:21:52;;;;;;;10.80;5.37;;;;;;;9.95;100.00;100632.91;5093990;28;20445;-63
2023/04/16 10:24:17;;;;;;;9.95;4.75;;;;;;;10.00;100.00;100635.94;5093981;28;20039;-64
2023/04/16 10:26:43;;;;;;;12.85;6.20;;;;;;;9.97;100.00;100636.25;5093895;28;20073;-64
2023/04/16 10:29:11;;;;;;;9.73;4.47;;;;;;;9.99;100.00;100641.44;5093706;28;20032;-64
2023/04/16 10:31:38;;;;;;;14.27;5.75;;;;;;;10.07;100.00;100642.28;5093769;28;20511;-64
2023/04/16 10:34:05;;;;;;;11.98;6.05;;;;;;;10.10;100.00;100642.94;5093887;28;20035;-64
2023/04/16 10:36:36;;;;;;;13.35;5.72;;;;;;;10.12;100.00;100646.31;5093638;28;20040;-64
2023/04/16 10:39:01;;;;;;;12.82;5.45;;;;;;;10.16;100.00;100643.13;5093512;28;20036;-65
2023/04/16 10:41:27;;;;;;;10.52;5.93;;;;;;;10.16;100.00;100647.63;5092669;28;20069;-65
2023/04/16 10:44:04;;;;;;;13.43;5.93;;;;;;;10.19;100.00;100653.47;5093654;28;20036;-65
2023/04/16 10:46:32;;;;;;;12.13;6.10;;;;;;;10.21;100.00;100645.31;5093560;28;20051;-65
2023/04/16 10:49:11;;;;;;;10.80;5.63;;;;;;;10.23;100.00;100641.53;5093170;28;20047;-65
2023/04/16 10:51:36;;;;;;;9.90;5.47;;;;;;;10.30;100.00;100655.88;5093464;28;20036;-64
2023/04/16 10:54:08;;;;;;;9.70;5.30;;;;;;;10.28;100.00;100651.69;5093498;28;20043;-64
2023/04/16 10:56:35;;;;;;;12.15;6.28;;;;;;;10.34;100.00;100651.06;5093324;28;20550;-65
2023/04/16 10:59:05;;;;;;;12.10;5.47;;;;;;;10.39;100.00;100656.75;5093057;28;20130;-65
2023/04/16 11:01:35;;;;;;;8.60;4.82;;;;;;;10.41;100.00;100651.25;5093240;28;20040;-65
2023/04/16 11:04:20;;;;;;;9.35;5.40;;;;;;;10.24;100.00;100642.38;5093175;28;20096;-65
2023/04/16 11:07:07;;;;;;;8.48;4.13;;;;;;;10.35;100.00;100644.72;5092951;28;20028;-65
2023/04/16 11:10:04;;;;;;;10.02;4.70;;;;;;;10.20;100.00;100651.66;5093096;28;20047;-65
2023/04/16 11:12:37;;;;;;;11.50;4.70;;;;;;;10.15;100.00;100645.97;5093022;28;20028;-65
2023/04/16 11:15:03;;;;;;;13.35;4.80;;;;;;;10.16;100.00;100658.28;5093059;28;20027;-65
2023/04/16 11:17:35;;;;;;;10.88;5.07;;;;;;;10.11;100.00;100658.78;5092617;28;20397;-65
2023/04/16 11:20:00;;;;;;;8.20;5.25;;;;;;;10.17;100.00;100657.28;5092933;28;20043;-65
2023/04/16 11:22:26;;;;;;;11.48;4.60;;;;;;;9.97;100.00;100649.53;5092713;28;20024;-65
2023/04/16 11:24:55;;;;;;;9.82;4.65;;;;;;;9.92;100.00;100651.03;5092857;28;20035;-65
2023/04/16 11:27:22;;;;;;;12.18;5.97;;;;;;;10.01;100.00;100656.22;5092543;28;20039;-65
2023/04/16 11:30:03;;;;;;;9.50;5.15;;;;;;;9.99;100.00;100655.56;5092484;28;20055;-65
2023/04/16 11:32:32;;;;;;;12.15;5.13;;;;;;;10.03;100.00;100654.22;5092744;28;20131;-65
2023/04/16 11:35:02;;;;;;;7.40;4.10;;;;;;;9.99;100.00;100650.25;5092618;28;20055;-65
2023/04/16 11:37:33;;;;;;;13.40;6.10;;;;;;;10.06;100.00;100664.56;5092333;28;20027;-64
2023/04/16 11:39:58;;;;;;;10.55;5.00;;;;;;;9.99;100.00;100660.06;5092516;28;20115;-65
2023/04/16 11:42:26;;;;;;;9.15;4.75;;;;;;;9.98;100.00;100656.56;5092494;28;20565;-65
2023/04/16 11:44:55;;;;;;;9.32;5.10;;;;;;;9.94;100.00;100657.88;5092555;28;20028;-64
2023/04/16 11:47:22;;;;;;;8.50;4.70;;;;;;;9.96;100.00;100657.69;5073878;28;20059;-65
2023/04/16 11:49:48;;;;;;;8.85;4.10;;;;;;;9.89;100.00;100677.94;5092513;28;20107;-64
2023/04/16 11:52:27;;;;;;;9.05;3.60;;;;;;;9.71;100.00;100670.03;5092583;28;20169;-65
2023/04/16 11:54:53;;;;;;;7.75;3.88;;;;;;;9.64;100.00;100674.31;5092323;28;20047;-63
2023/04/16 11:57:27;;;;;;;11.00;4.13;;;;;;;9.69;100.00;100666.69;5081756;28;20040;-64
2023/04/16 11:59:52;;;;;;;8.82;4.22;;;;;;;9.57;100.00;100668.78;5090792;28;20036;-64
2023/04/16 12:02:36;;;;;;;9.85;4.43;;;;;;;9.61;100.00;100674.63;5092348;28;20040;-65
2023/04/16 12:05:07;;;;;;;10.27;4.47;;;;;;;9.63;100.00;100680.63;5092437;28;20036;-65
2023/04/16 12:07:45;;;;;;;11.45;4.55;;;;;;;9.72;100.00;100669.06;5091357;28;20039;-65
2023/04/16 12:10:10;;;;;;;7.53;4.60;;;;;;;9.76;100.00;100670.41;5092000;28;20464;-65
2023/04/16 12:12:36;;;;;;;6.57;3.72;;;;;;;9.71;100.00;100668.19;5092092;28;20043;-65
2023/04/16 12:15:02;;;;;;;9.10;4.90;;;;;;;9.80;100.00;100679.75;5092181;28;20048;-65
2023/04/16 12:17:29;;;;;;;7.68;4.13;;;;;;;9.86;100.00;100672.97;5091308;28;20654;-64
2023/04/16 12:19:57;;;;;;;8.57;4.47;;;;;;;9.89;100.00;100675.28;5092120;28;20027;-62
2023/04/16 12:22:27;;;;;;;12.65;5.35;;;;;;;9.94;100.00;100665.84;5092182;28;20039;-64
2023/04/16 12:25:04;;;;;;;8.68;5.13;;;;;;;9.84;100.00;100678.41;5091919;28;20686;-63
2023/04/16 12:27:44;;;;;;;11.15;4.80;;;;;;;9.84;100.00;100675.75;5073456;28;20037;-63
2023/04/16 12:30:10;;;;;;;11.15;5.07;;;;;;;9.86;100.00;100678.28;5071872;28;20036;-64
2023/04/16 12:32:35;;;;;;;12.80;5.97;;;;;;;9.89;100.00;100673.47;5071770;28;20134;-64
2023/04/16 12:35:01;;;;;;;10.77;5.30;;;;;;;9.87;100.00;100674.63;5071770;28;20405;-64
2023/04/16 12:37:26;;;;;;;12.93;5.45;;;;;;;9.89;100.00;100680.63;5070794;28;20101;-64
2023/04/16 12:39:52;;;;;;;8.15;4.47;;;;;;;9.81;100.00;100678.75;5071984;28;20051;-63
2023/04/16 12:42:18;;;;;;;14.38;5.50;;;;;;;9.82;100.00;100680.41;5079051;28;20024;-66
2023/04/16 12:44:43;;;;;;;12.00;5.88;;;;;;;9.96;100.00;100674.50;5083681;28;20390;-66
2023/04/16 12:47:09;;;;;;;12.52;5.03;;;;;;;9.98;100.00;100675.19;5074844;28;20072;-63
2023/04/16 12:49:35;;;;;;;15.23;6.20;;;;;;;9.89;100.00;100672.63;5075554;28;20040;-63
2023/04/16 12:52:01;;;;;;;9.00;4.18;;;;;;;9.97;100.00;100680.66;5074147;28;20086;-63
2023/04/16 12:54:29;;;;;;;12.85;5.25;;;;;;;9.96;100.00;100687.81;5074555;28;20044;-63
2023/04/16 12:56:58;;;;;;;11.25;5.25;;;;;;;9.91;100.00;100676.81;5074887;28;20044;-64
2023/04/16 12:59:23;;;;;;;10.80;4.40;;;;;;;9.86;100.00;100681.78;5075262;28;20086;-64
2023/04/16 13:01:49;;;;;;;8.65;4.88;;;;;;;9.80;100.00;100677.09;5075435;28;20036;-64
2023/04/16 13:04:15;;;;;;;10.15;5.07;;;;;;;9.80;100.00;100677.09;5075281;28;20120;-64
2023/04/16 13:06:40;;;;;;;10.93;5.28;;;;;;;9.77;100.00;100675.56;5075130;28;20036;-63
2023/04/16 13:09:06;;;;;;;12.73;6.13;;;;;;;9.79;100.00;100683.41;5074466;28;20516;-64
2023/04/16 13:11:32;;;;;;;9.75;4.90;;;;;;;9.74;100.00;100680.38;5074955;28;20496;-64
2023/04/16 13:13:57;;;;;;;11.85;5.00;;;;;;;9.73;100.00;100678.72;5075033;28;20059;-64
2023/04/16 13:16:23;;;;;;;11.45;5.05;;;;;;;9.77;100.00;100677.38;5074997;28;20082;-64
2023/04/16 13:18:49;;;;;;;11.15;4.60;;;;;;;9.80;100.00;100685.06;5073235;28;20040;-64
2023/04/16 13:21:14;;;;;;;13.38;5.00;;;;;;;9.81;100.00;100681.41;5074808;28;20047;-65
2023/04/16 13:23:40;;;;;;;12.35;5.00;;;;;;;9.75;100.00;100668.72;5073908;28;20064;-64
2023/04/16 13:26:06;;;;;;;12.20;5.53;;;;;;;9.79;100.00;100684.22;5073243;28;20040;-64
2023/04/16 13:28:31;;;;;;;11.68;4.68;;;;;;;9.80;100.00;100682.41;5073975;28;20036;-64
2023/04/16 13:30:57;;;;;;;9.85;4.80;;;;;;;9.76;100.00;100683.69;5074417;28;20036;-64
2023/04/16 13:33:22;;;;;;;13.15;5.43;;;;;;;9.80;100.00;100674.44;5073943;28;20039;-65
2023/04/16 13:35:48;;;;;;;10.63;5.93;;;;;;;9.89;100.00;100678.78;5074344;28;20032;-63
2023/04/16 13:38:14;;;;;;;14.30;5.40;;;;;;;9.86;100.00;100679.13;5074367;28;20036;-64
2023/04/16 13:40:40;;;;;;;11.38;5.70;;;;;;;9.86;100.00;100673.78;5074106;28;20036;-65
2023/04/16 13:43:08;;;;;;;13.05;5.55;;;;;;;9.82;100.00;100682.25;5074621;28;20040;-65
2023/04/16 13:45:34;;;;;;;10.65;5.28;;;;;;;9.82;100.00;100687.56;5074313;28;20033;-65
2023/04/16 13:47:59;;;;;;;12.27;5.20;;;;;;;9.89;100.00;100676.13;5074174;28;20401;-64
2023/04/16 13:50:25;;;;;;;10.50;4.90;;;;;;;9.84;100.00;100683.75;5074256;28;20497;-65
2023/04/16 13:52:50;;;;;;;14.82;5.60;;;;;;;9.87;100.00;100679.94;5073007;28;20488;-64
2023/04/16 13:55:17;;;;;;;13.38;5.45;;;;;;;9.89;100.00;100686.78;5074098;28;20044;-64
2023/04/16 13:57:46;;;;;;;9.85;5.32;;;;;;;9.88;100.00;100682.44;5074037;28;20386;-64
2023/04/16 14:00:14;;;;;;;10.98;4.72;;;;;;;9.94;100.00;100681.81;5074239;28;20067;-64
2023/04/16 14:02:44;;;;;;;11.85;5.55;;;;;;;9.89;100.00;100672.63;5074195;28;20039;-65
2023/04/16 14:05:10;;;;;;;9.48;4.55;;;;;;;9.96;100.00;100677.16;5074016;28;20040;-65
2023/04/16 14:07:36;;;;;;;13.50;4.90;;;;;;;10.00;100.00;100669.69;5073821;28;20032;-65
2023/04/16 14:10:01;;;;;;;11.13;5.72;;;;;;;9.96;100.00;100669.16;5073978;28;20569;-65
2023/04/16 14:12:27;;;;;;;11.48;6.03;;;;;;;10.04;100.00;100679.00;5072675;28;20497;-65
2023/04/16 14:14:52;;;;;;;8.77;4.72;;;;;;;9.97;100.00;100676.16;5073988;28;20043;-65
2023/04/16 14:17:18;;;;;;;12.60;5.32;;;;;;;9.91;100.00;100676.81;5073480;28;20048;-65
2023/04/16 14:19:43;;;;;;;11.48;4.82;;;;;;;9.86;100.00;100679.13;5073904;28;20128;-65
2023/04/16 14:22:08;;;;;;;11.23;5.18;;;;;;;9.85;100.00;100680.13;5073777;28;20104;-65
2023/04/16 14:24:34;;;;;;;14.60;5.75;;;;;;;9.82;100.00;100675.09;5072484;28;20408;-65
2023/04/16 14:26:59;;;;;;;14.07;6.07;;;;;;;9.83;100.00;100678.59;5072155;28;20033;-64
2023/04/16 14:29:25;;;;;;;11.02;4.47;;;;;;;9.83;100.00;100678.59;5073644;28;20064;-64
2023/04/16 14:31:50;;;;;;;9.30;5.03;;;;;;;9.84;100.00;100678.41;5073405;28;20095;-64
2023/04/16 14:34:16;;;;;;;9.38;4.70;;;;;;;9.84;100.00;100685.56;5073603;28;20051;-64
2023/04/16 14:36:42;;;;;;;11.90;5.10;;;;;;;9.84;100.00;100677.59;5072182;28;20158;-64
2023/04/16 14:39:07;;;;;;;9.73;4.40;;;;;;;9.83;100.00;100675.91;5073019;28;20638;-64
2023/04/16 14:41:33;;;;;;;11.43;4.68;;;;;;;9.78;100.00;100677.25;5073361;28;20036;-64
2023/04/16 14:43:58;;;;;;;14.85;5.90;;;;;;;9.83;100.00;100674.09;5072221;28;20036;-64
2023/04/16 14:46:25;;;;;;;10.93;4.68;;;;;;;9.83;100.00;100681.25;5073129;28;20494;-64
2023/04/16 14:48:51;;;;;;;10.07;4.45;;;;;;;9.78;100.00;100674.59;5073177;28;20186;-64
2023/04/16 14:51:17;;;;;;;9.20;4.45;;;;;;;9.83;100.00;100676.75;5073204;28;20115;-51
2023/04/16 14:53:42;;;;;;;9.88;4.55;;;;;;;9.75;100.00;100672.22;5073229;28;20052;-53
2023/04/16 14:56:08;;;;;;;10.48;4.95;;;;;;;9.78;100.00;100681.75;5072966;28;20413;-62
2023/04/16 14:58:34;;;;;;;10.73;5.53;;;;;;;9.76;100.00;100678.38;5072915;28;20048;-63
2023/04/16 15:01:00;;;;;;;14.85;5.55;;;;;;;9.77;100.00;100678.22;5072898;28;20119;-64
2023/04/16 15:03:26;;;;;;;11.52;5.03;;;;;;;9.82;100.00;100690.22;5072931;28;20102;-63
2023/04/16 15:05:54;;;;;;;13.35;5.55;;;;;;;9.72;100.00;100671.72;5072008;28;20036;-63
2023/04/16 15:08:23;;;;;;;12.20;5.40;;;;;;;9.72;100.00;100687.69;5083431;28;20032;-64
2023/04/16 15:10:49;;;;;;;12.27;5.35;;;;;;;9.72;100.00;100677.88;5093160;28;20093;-61
2023/04/16 15:13:15;;;;;;;15.43;5.93;;;;;;;9.74;100.00;100683.03;5093064;28;20511;-63
2023/04/16 15:15:40;;;;;;;15.82;5.47;;;;;;;9.70;100.00;100684.31;5093056;28;20156;-63
2023/04/16 15:18:06;;;;;;;13.07;5.68;;;;;;;9.72;100.00;100683.19;5092600;28;20499;-62
2023/04/16 15:20:31;;;;;;;15.48;5.78;;;;;;;9.70;100.00;100679.00;5092897;28;20531;-62
2023/04/16 15:22:57;;;;;;;15.77;6.32;;;;;;;9.68;100.00;100681.00;5092942;28;20454;-62
2023/04/16 15:25:24;;;;;;;10.88;6.03;;;;;;;9.70;100.00;100685.16;5092883;28;20070;-62
2023/04/16 15:27:49;;;;;;;14.10;6.77;;;;;;;9.68;100.00;100673.00;5092482;28;20040;-63
2023/04/16 15:30:16;;;;;;;15.15;6.60;;;;;;;9.74;100.00;100685.69;5092744;28;20286;-63
2023/04/16 15:32:43;;;;;;;12.00;5.07;;;;;;;9.77;100.00;100690.69;5092640;28;20035;-63
2023/04/16 15:35:08;;;;;;;10.80;6.03;;;;;;;9.74;100.00;100691.00;5092996;28;20725;-63
2023/04/16 15:37:34;;;;;;;15.18;6.85;;;;;;;9.74;100.00;100688.34;5092217;28;20288;-61